createdAt,value
2022-09-26T00:01:43.290Z,55.30
2022-09-26T00:04:16.472Z,49.30
2022-09-26T00:06:45.110Z,47.90
2022-09-26T00:09:15.215Z,50.90
2022-09-26T00:11:44.249Z,49.80
2022-09-26T00:14:15.507Z,47.80
2022-09-26T00:16:44.118Z,49.20
2022-09-26T00:19:13.304Z,43.30
2022-09-26T00:21:42.159Z,46.20
2022-09-26T00:24:11.077Z,45.60
2022-09-26T00:26:39.929Z,49.50
2022-09-26T00:29:11.184Z,44.90
2022-09-26T00:31:42.660Z,42.10
2022-09-26T00:34:13.096Z,48.20
2022-09-26T00:36:41.619Z,47.70
2022-09-26T00:39:13.608Z,48.50
2022-09-26T00:41:43.141Z,47.80
2022-09-26T00:44:42.755Z,50.40
2022-09-26T00:47:33.448Z,44.10
2022-09-26T00:50:06.004Z,46.70
2022-09-26T00:52:39.078Z,45.10
2022-09-26T00:57:41.662Z,47.00
2022-09-26T01:02:40.082Z,42.50
2022-09-26T01:05:12.838Z,44.60
2022-09-26T01:07:41.497Z,45.80
2022-09-26T01:10:11.527Z,43.50
2022-09-26T01:12:40.653Z,46.60
2022-09-26T01:15:10.991Z,42.30
2022-09-26T01:17:42.391Z,45.30
2022-09-26T01:20:26.508Z,41.80
2022-09-26T01:23:37.893Z,47.00
2022-09-26T01:26:27.696Z,48.90
2022-09-26T01:29:53.140Z,51.60
2022-09-26T01:32:50.325Z,50.50
2022-09-26T01:35:36.646Z,45.30
2022-09-26T01:38:17.169Z,50.80
2022-09-26T01:41:03.037Z,48.50
2022-09-26T01:43:40.013Z,52.60
2022-09-26T01:46:24.437Z,49.50
2022-09-26T01:49:01.636Z,45.40
2022-09-26T01:51:37.101Z,51.80
2022-09-26T01:54:11.124Z,48.20
2022-09-26T01:56:42.811Z,54.70
2022-09-26T01:59:18.952Z,52.80
2022-09-26T02:01:55.720Z,48.50
2022-09-26T02:04:29.601Z,53.30
2022-09-26T02:07:01.844Z,50.40
2022-09-26T02:09:37.713Z,54.60
2022-09-26T02:12:12.867Z,54.10
2022-09-26T02:14:45.496Z,51.60
2022-09-26T02:17:18.252Z,50.40
2022-09-26T02:22:18.868Z,46.80
2022-09-26T02:24:47.486Z,45.20
2022-09-26T02:27:16.020Z,50.60
2022-09-26T02:29:45.339Z,52.20
2022-09-26T02:32:18.380Z,55.70
2022-09-26T02:34:48.873Z,59.00
2022-09-26T02:37:20.679Z,49.50
2022-09-26T02:39:51.632Z,60.20
2022-09-26T02:42:29.116Z,53.70
2022-09-26T02:45:13.937Z,58.00
2022-09-26T02:48:04.997Z,51.40
2022-09-26T02:50:49.492Z,51.50
2022-09-26T02:53:32.404Z,51.30
2022-09-26T02:56:10.794Z,52.10
2022-09-26T02:58:51.066Z,46.50
2022-09-26T03:01:26.860Z,51.10
2022-09-26T03:04:02.947Z,46.80
2022-09-26T03:06:35.907Z,45.10
2022-09-26T03:09:06.536Z,46.20
2022-09-26T03:11:36.068Z,47.10
2022-09-26T03:14:04.838Z,48.90
2022-09-26T03:16:37.766Z,50.00
2022-09-26T03:19:11.519Z,46.20
2022-09-26T03:21:40.342Z,41.90
2022-09-26T03:24:09.300Z,40.50
2022-09-26T03:26:41.223Z,45.60
2022-09-26T03:29:09.884Z,42.20
2022-09-26T03:31:38.777Z,42.30
2022-09-26T03:34:08.361Z,46.80
2022-09-26T03:36:39.936Z,46.00
2022-09-26T03:39:10.160Z,46.10
2022-09-26T03:41:47.903Z,42.20
2022-09-26T03:44:28.103Z,44.60
2022-09-26T03:47:26.071Z,43.40
2022-09-26T03:49:54.844Z,46.40
2022-09-26T03:52:24.457Z,46.50
2022-09-26T03:54:53.239Z,43.20
2022-09-26T03:57:22.058Z,47.20
2022-09-26T03:59:57.715Z,46.50
2022-09-26T04:02:28.542Z,52.30
2022-09-26T04:05:06.235Z,52.10
2022-09-26T04:07:34.792Z,50.90
2022-09-26T04:10:04.030Z,47.20
2022-09-26T04:12:33.526Z,47.20
2022-09-26T04:15:03.075Z,46.00
2022-09-26T04:17:33.178Z,47.60
2022-09-26T04:20:03.528Z,48.30
2022-09-26T04:22:33.385Z,42.70
2022-09-26T04:25:01.940Z,47.70
2022-09-26T04:27:31.277Z,47.70
2022-09-26T04:29:59.777Z,47.80
2022-09-26T04:32:40.425Z,48.00
2022-09-26T04:35:28.863Z,48.20
2022-09-26T04:37:57.519Z,41.70
2022-09-26T04:40:26.308Z,47.60
2022-09-26T04:43:02.496Z,48.50
2022-09-26T04:45:30.947Z,48.50
2022-09-26T04:47:59.821Z,49.70
2022-09-26T04:50:28.645Z,47.70
2022-09-26T04:53:08.401Z,50.30
2022-09-26T04:55:45.224Z,44.90
2022-09-26T04:58:15.396Z,44.40
2022-09-26T05:00:47.236Z,46.30
2022-09-26T05:03:18.377Z,50.00
2022-09-26T05:05:49.373Z,49.20
2022-09-26T05:08:17.822Z,50.70
2022-09-26T05:10:52.843Z,51.60
2022-09-26T05:13:21.533Z,50.00
2022-09-26T05:15:53.566Z,44.30
2022-09-26T05:18:22.930Z,49.60
2022-09-26T05:20:52.436Z,53.20
2022-09-26T05:23:45.278Z,51.50
2022-09-26T05:26:20.001Z,44.80
2022-09-26T05:28:51.529Z,46.50
2022-09-26T05:31:22.076Z,51.50
2022-09-26T05:33:51.817Z,43.20
2022-09-26T05:36:20.390Z,48.50
2022-09-26T05:38:48.807Z,46.20
2022-09-26T05:41:19.287Z,48.30
2022-09-26T05:43:47.792Z,45.20
2022-09-26T05:46:16.564Z,49.50
2022-09-26T05:48:48.763Z,50.50
2022-09-26T05:51:23.760Z,55.50
2022-09-26T05:53:52.524Z,48.80
2022-09-26T05:56:23.045Z,46.50
2022-09-26T05:59:18.247Z,52.70
2022-09-26T06:02:06.388Z,52.60
2022-09-26T06:05:04.958Z,49.60
2022-09-26T06:08:02.509Z,42.80
2022-09-26T06:10:38.438Z,56.10
2022-09-26T06:13:07.558Z,56.40
2022-09-26T06:15:43.913Z,46.30
2022-09-26T06:18:12.769Z,49.80
2022-09-26T06:20:41.148Z,52.40
2022-09-26T06:23:09.714Z,47.10
2022-09-26T06:25:39.862Z,48.70
2022-09-26T06:28:08.597Z,47.50
2022-09-26T06:30:38.182Z,46.10
2022-09-26T06:33:15.283Z,48.60
2022-09-26T06:36:03.328Z,50.50
2022-09-26T06:38:37.794Z,53.00
2022-09-26T06:41:09.974Z,48.00
2022-09-26T06:43:39.096Z,48.60
2022-09-26T06:46:10.440Z,45.70
2022-09-26T06:48:50.252Z,48.30
2022-09-26T06:51:48.511Z,48.30
2022-09-26T06:54:18.512Z,45.40
2022-09-26T06:56:47.021Z,48.40
2022-09-26T06:59:16.284Z,55.10
2022-09-26T07:01:52.458Z,49.70
2022-09-26T07:04:56.499Z,41.60
2022-09-26T07:07:41.777Z,37.90
2022-09-26T07:10:14.174Z,36.10
2022-09-26T07:13:16.461Z,35.80
2022-09-26T07:15:46.555Z,36.50
2022-09-26T07:18:37.330Z,37.10
2022-09-26T07:21:26.038Z,35.60
2022-09-26T07:24:13.734Z,35.20
2022-09-26T07:26:43.301Z,32.00
2022-09-26T07:29:12.230Z,36.00
2022-09-26T07:31:41.006Z,33.30
2022-09-26T07:34:24.482Z,30.30
2022-09-26T07:36:53.451Z,31.50
2022-09-26T07:39:22.587Z,32.10
2022-09-26T07:41:51.516Z,35.50
2022-09-26T07:45:02.186Z,29.20
2022-09-26T07:47:26.325Z,30.80
2022-09-26T07:50:15.246Z,27.40
2022-09-26T07:53:06.334Z,28.80
2022-09-26T07:55:55.181Z,30.30
2022-09-26T07:58:45.750Z,30.40
2022-09-26T08:01:36.947Z,25.90
2022-09-26T08:04:24.204Z,29.90
2022-09-26T08:06:53.625Z,25.80
2022-09-26T08:09:22.076Z,26.30
2022-09-26T08:12:09.371Z,25.60
2022-09-26T08:14:56.643Z,23.50
2022-09-26T08:17:42.886Z,23.30
2022-09-26T08:20:12.936Z,24.60
2022-09-26T08:22:42.663Z,24.80
2022-09-26T08:25:13.565Z,27.90
2022-09-26T08:27:52.558Z,28.80
2022-09-26T08:30:24.605Z,24.30
2022-09-26T08:32:58.181Z,25.20
2022-09-26T08:35:27.278Z,21.30
2022-09-26T08:38:17.168Z,24.40
2022-09-26T08:40:54.779Z,21.70
2022-09-26T08:43:55.730Z,22.00
2022-09-26T08:47:00.942Z,34.10
2022-09-26T08:50:11.036Z,22.80
2022-09-26T08:52:42.156Z,23.30
2022-09-26T08:55:15.770Z,20.70
2022-09-26T08:57:48.999Z,19.20
2022-09-26T09:00:20.859Z,24.90
2022-09-26T09:03:10.667Z,21.70
2022-09-26T09:05:43.023Z,19.40
2022-09-26T09:08:16.679Z,16.60
2022-09-26T09:11:14.874Z,18.10
2022-09-26T09:13:56.698Z,19.30
2022-09-26T09:16:59.208Z,17.70
2022-09-26T09:20:02.755Z,18.00
2022-09-26T09:23:08.443Z,19.80
2022-09-26T09:25:47.468Z,24.10
2022-09-26T09:28:32.617Z,16.80
2022-09-26T09:31:05.871Z,15.20
2022-09-26T09:33:59.851Z,27.50
2022-09-26T09:36:42.945Z,18.40
2022-09-26T09:42:16.408Z,18.40
2022-09-26T09:44:48.818Z,22.30
2022-09-26T09:47:20.420Z,18.10
2022-09-26T09:49:49.909Z,22.50
2022-09-26T09:52:31.109Z,22.30
2022-09-26T09:55:16.092Z,21.50
2022-09-26T09:58:02.245Z,21.10
2022-09-26T10:00:35.749Z,19.00
2022-09-26T10:03:20.336Z,19.10
2022-09-26T10:05:53.005Z,14.20
2022-09-26T10:08:31.010Z,12.60
2022-09-26T10:11:30.128Z,14.30
2022-09-26T10:14:04.515Z,15.80
2022-09-26T10:17:30.447Z,14.50
2022-09-26T10:20:37.367Z,11.90
2022-09-26T10:23:18.869Z,11.40
2022-09-26T10:25:49.999Z,11.40
2022-09-26T10:28:29.333Z,8.80
2022-09-26T10:31:04.378Z,10.20
2022-09-26T10:33:47.040Z,13.20
2022-09-26T10:39:14.383Z,11.60
2022-09-26T10:41:45.533Z,14.30
2022-09-26T10:44:26.271Z,11.40
2022-09-26T10:47:12.989Z,8.80
2022-09-26T10:50:06.526Z,17.90
2022-09-26T10:53:14.402Z,11.10
2022-09-26T10:55:47.859Z,11.30
2022-09-26T10:58:22.191Z,11.70
2022-09-26T11:00:53.485Z,12.30
2022-09-26T11:03:32.872Z,11.10
2022-09-26T11:06:35.476Z,12.10
2022-09-26T11:09:20.613Z,11.90
2022-09-26T11:12:24.568Z,10.40
2022-09-26T11:14:58.182Z,9.40
2022-09-26T11:17:46.739Z,11.60
2022-09-26T11:20:27.335Z,8.00
2022-09-26T11:23:07.141Z,7.70
2022-09-26T11:25:57.968Z,7.80
2022-09-26T11:28:33.622Z,9.50
2022-09-26T11:31:24.276Z,9.60
2022-09-26T11:34:06.537Z,7.90
2022-09-26T11:37:21.442Z,8.00
2022-09-26T11:40:09.288Z,10.80
2022-09-26T11:42:54.169Z,8.30
2022-09-26T11:45:38.619Z,11.20
2022-09-26T11:48:52.533Z,6.70
2022-09-26T11:52:04.282Z,6.20
2022-09-26T11:54:46.657Z,12.60
2022-09-26T11:57:34.375Z,11.40
2022-09-26T12:00:15.586Z,9.30
2022-09-26T12:03:13.298Z,10.00
2022-09-26T12:05:52.859Z,6.80
2022-09-26T12:08:31.565Z,7.20
2022-09-26T12:11:14.752Z,9.60
2022-09-26T12:13:52.625Z,9.20
2022-09-26T12:16:26.340Z,9.20
2022-09-26T12:19:04.521Z,8.10
2022-09-26T12:22:05.507Z,11.70
2022-09-26T12:24:40.774Z,7.50
2022-09-26T12:27:16.654Z,12.40
2022-09-26T12:29:54.513Z,13.80
2022-09-26T12:32:42.228Z,12.30
2022-09-26T12:35:29.286Z,12.30
2022-09-26T12:38:32.121Z,17.10
2022-09-26T12:41:24.439Z,15.70
2022-09-26T12:44:24.430Z,18.30
2022-09-26T12:47:18.626Z,17.40
2022-09-26T12:50:30.368Z,20.90
2022-09-26T12:53:18.357Z,19.20
2022-09-26T12:55:58.289Z,17.10
2022-09-26T12:58:39.814Z,23.80
2022-09-26T13:01:28.146Z,20.80
2022-09-26T13:04:15.247Z,24.50
2022-09-26T13:07:18.895Z,22.80
2022-09-26T13:10:11.225Z,21.10
2022-09-26T13:13:11.542Z,26.80
2022-09-26T13:15:52.196Z,18.50
2022-09-26T13:18:27.023Z,18.40
2022-09-26T13:21:02.821Z,15.40
2022-09-26T13:23:37.613Z,25.70
2022-09-26T13:26:12.217Z,13.80
2022-09-26T13:29:06.424Z,13.80
2022-09-26T13:31:39.550Z,13.00
2022-09-26T13:34:16.256Z,9.20
2022-09-26T13:36:45.737Z,11.00
2022-09-26T13:39:18.287Z,8.20
2022-09-26T13:41:53.265Z,7.30
2022-09-26T13:44:33.021Z,8.00
2022-09-26T13:47:12.613Z,9.70
2022-09-26T13:49:57.435Z,8.30
2022-09-26T13:52:40.331Z,6.20
2022-09-26T13:55:18.470Z,7.00
2022-09-26T13:57:51.013Z,9.80
2022-09-26T14:00:40.047Z,11.60
2022-09-26T14:03:49.734Z,8.40
2022-09-26T14:06:33.170Z,7.10
2022-09-26T14:09:24.178Z,10.20
2022-09-26T14:12:19.055Z,39.20
2022-09-26T14:15:20.133Z,38.40
2022-09-26T14:18:07.156Z,5.70
2022-09-26T14:20:49.946Z,6.00
2022-09-26T14:23:49.475Z,2.20
2022-09-26T14:26:21.521Z,5.50
2022-09-26T14:28:53.324Z,9.10
2022-09-26T14:31:42.063Z,5.30
2022-09-26T14:34:22.032Z,5.50
2022-09-26T14:36:52.736Z,7.70
2022-09-26T14:39:32.978Z,4.30
2022-09-26T14:42:10.591Z,7.40
2022-09-26T14:44:45.868Z,2.70
2022-09-26T14:47:15.855Z,3.20
2022-09-26T14:49:54.026Z,3.30
2022-09-26T14:52:24.572Z,3.30
2022-09-26T14:54:58.219Z,3.00
2022-09-26T14:57:30.935Z,5.20
2022-09-26T15:00:01.049Z,3.80
2022-09-26T15:02:41.485Z,11.60
2022-09-26T15:05:25.418Z,1.90
2022-09-26T15:07:56.983Z,2.90
2022-09-26T15:10:37.584Z,5.20
2022-09-26T15:13:19.339Z,4.20
2022-09-26T15:15:55.182Z,4.50
2022-09-26T15:18:38.645Z,4.10
2022-09-26T15:21:17.602Z,3.70
2022-09-26T15:23:49.652Z,5.00
2022-09-26T15:26:21.679Z,4.10
2022-09-26T15:28:53.300Z,9.30
2022-09-26T15:31:26.104Z,5.60
2022-09-26T15:34:03.641Z,5.30
2022-09-26T15:36:34.892Z,5.80
2022-09-26T15:39:24.128Z,9.10
2022-09-26T15:42:11.530Z,3.80
2022-09-26T15:44:48.052Z,7.00
2022-09-26T15:47:39.062Z,5.80
2022-09-26T15:50:12.640Z,11.10
2022-09-26T15:52:44.380Z,6.90
2022-09-26T15:55:20.667Z,8.40
2022-09-26T15:57:53.196Z,8.60
2022-09-26T16:02:51.700Z,8.30
2022-09-26T16:05:23.113Z,4.90
2022-09-26T16:07:52.505Z,5.10
2022-09-26T16:10:24.733Z,12.60
2022-09-26T16:12:53.377Z,10.20
2022-09-26T16:15:27.393Z,7.60
2022-09-26T16:17:57.954Z,6.90
2022-09-26T16:20:30.224Z,4.20
2022-09-26T16:23:05.097Z,9.10
2022-09-26T16:25:52.765Z,8.10
2022-09-26T16:28:41.785Z,8.80
2022-09-26T16:31:23.723Z,8.00
2022-09-26T16:33:54.430Z,8.60
2022-09-26T16:36:25.457Z,6.20
2022-09-26T16:38:57.161Z,7.70
2022-09-26T16:44:31.868Z,9.50
2022-09-26T16:47:05.980Z,6.20
2022-09-26T16:49:45.157Z,8.50
2022-09-26T16:52:36.724Z,7.40
2022-09-26T16:55:08.615Z,12.00
2022-09-26T16:57:40.382Z,9.30
2022-09-26T17:00:36.525Z,10.70
2022-09-26T17:03:20.733Z,9.90
2022-09-26T17:05:51.123Z,7.80
2022-09-26T17:08:21.405Z,8.40
2022-09-26T17:10:49.912Z,10.50
2022-09-26T17:13:22.229Z,15.30
2022-09-26T17:15:54.001Z,12.60
2022-09-26T17:18:28.565Z,21.10
2022-09-26T17:20:58.523Z,14.90
2022-09-26T17:23:40.029Z,11.10
2022-09-26T17:26:16.063Z,9.70
2022-09-26T17:28:45.535Z,12.60
2022-09-26T17:31:18.872Z,11.90
2022-09-26T17:33:49.076Z,13.70
2022-09-26T17:36:22.584Z,11.00
2022-09-26T17:38:55.518Z,14.20
2022-09-26T17:41:28.968Z,13.60
2022-09-26T17:43:59.608Z,14.40
2022-09-26T17:46:29.025Z,13.30
2022-09-26T17:48:58.652Z,13.90
2022-09-26T17:51:30.393Z,15.00
2022-09-26T17:53:59.280Z,19.90
2022-09-26T17:56:28.065Z,17.50
2022-09-26T17:58:59.739Z,14.80
2022-09-26T18:01:33.661Z,17.60
2022-09-26T18:04:12.036Z,17.00
2022-09-26T18:06:42.374Z,12.90
2022-09-26T18:09:15.974Z,16.80
2022-09-26T18:11:53.608Z,20.70
2022-09-26T18:14:23.038Z,18.90
2022-09-26T18:16:51.614Z,16.60
2022-09-26T18:19:21.094Z,15.50
2022-09-26T18:21:53.793Z,16.00
2022-09-26T18:26:56.495Z,15.30
2022-09-26T18:29:31.412Z,19.50
2022-09-26T18:32:00.821Z,14.30
2022-09-26T18:34:30.135Z,19.00
2022-09-26T18:37:00.953Z,18.80
2022-09-26T18:39:30.604Z,18.40
2022-09-26T18:42:04.407Z,18.80
2022-09-26T18:44:34.559Z,21.10
2022-09-26T18:47:07.203Z,16.40
2022-09-26T18:49:37.574Z,18.90
2022-09-26T18:52:11.432Z,23.20
2022-09-26T18:54:44.337Z,18.60
2022-09-26T18:57:32.165Z,20.20
2022-09-26T19:00:02.052Z,22.40
2022-09-26T19:02:37.602Z,21.50
2022-09-26T19:05:14.169Z,18.60
2022-09-26T19:07:44.326Z,19.50
2022-09-26T19:10:15.905Z,17.50
2022-09-26T19:12:44.672Z,15.40
2022-09-26T19:15:17.157Z,19.70
2022-09-26T19:17:46.020Z,19.30
2022-09-26T19:20:14.793Z,19.00
2022-09-26T19:22:43.370Z,17.90
2022-09-26T19:25:11.691Z,14.80
2022-09-26T19:27:45.576Z,20.80
2022-09-26T19:30:17.482Z,17.10
2022-09-26T19:32:49.080Z,16.90
2022-09-26T19:35:23.831Z,14.00
2022-09-26T19:37:53.320Z,18.90
2022-09-26T19:40:23.646Z,17.90
2022-09-26T19:42:53.180Z,18.90
2022-09-26T19:45:22.035Z,24.20
2022-09-26T19:47:53.550Z,21.30
2022-09-26T19:50:25.178Z,16.50
2022-09-26T19:52:55.978Z,20.30
2022-09-26T19:55:27.819Z,18.20
2022-09-26T19:58:01.155Z,18.80
2022-09-26T20:00:30.427Z,16.20
2022-09-26T20:02:58.942Z,19.10
2022-09-26T20:05:27.245Z,17.60
2022-09-26T20:07:55.782Z,18.60
2022-09-26T20:10:24.843Z,16.00
2022-09-26T20:12:53.989Z,17.20
2022-09-26T20:15:23.471Z,21.20
2022-09-26T20:17:54.416Z,24.60
2022-09-26T20:20:24.396Z,20.40
2022-09-26T20:22:55.114Z,20.10
2022-09-26T20:25:27.293Z,17.60
2022-09-26T20:27:57.641Z,21.30
2022-09-26T20:30:45.504Z,20.10
2022-09-26T20:33:15.280Z,18.30
2022-09-26T20:35:47.249Z,22.90
2022-09-26T20:38:25.945Z,21.30
2022-09-26T20:40:59.385Z,20.80
2022-09-26T20:43:33.382Z,25.90
2022-09-26T20:46:10.924Z,23.20
2022-09-26T20:48:42.457Z,21.80
2022-09-26T20:51:18.579Z,22.90
2022-09-26T20:53:47.213Z,28.20
2022-09-26T20:56:16.752Z,30.10
2022-09-26T20:58:45.255Z,29.80
2022-09-26T21:01:14.874Z,31.80
2022-09-26T21:03:46.566Z,35.40
2022-09-26T21:06:18.957Z,30.70
2022-09-26T21:08:47.965Z,34.20
2022-09-26T21:11:18.865Z,33.90
2022-09-26T21:13:47.957Z,36.00
2022-09-26T21:16:19.573Z,35.20
2022-09-26T21:18:50.587Z,35.20
2022-09-26T21:21:23.017Z,34.20
2022-09-26T21:24:15.858Z,36.00
2022-09-26T21:26:44.510Z,37.30
2022-09-26T21:29:16.511Z,37.00
2022-09-26T21:31:48.424Z,33.50
2022-09-26T21:34:21.481Z,30.60
2022-09-26T21:36:52.092Z,34.70
2022-09-26T21:39:21.103Z,34.40
2022-09-26T21:41:53.682Z,33.70
2022-09-26T21:46:52.758Z,33.50
2022-09-26T21:49:21.038Z,34.50
2022-09-26T21:51:54.766Z,34.60
2022-09-26T21:54:27.241Z,36.50
2022-09-26T21:57:01.564Z,32.40
2022-09-26T21:59:30.763Z,33.80
2022-09-26T22:01:59.319Z,33.90
2022-09-26T22:04:28.275Z,35.30
2022-09-26T22:06:56.654Z,33.50
2022-09-26T22:09:25.066Z,34.70
2022-09-26T22:11:53.352Z,35.70
2022-09-26T22:14:21.608Z,31.80
2022-09-26T22:16:49.944Z,37.40
2022-09-26T22:19:18.275Z,35.40
2022-09-26T22:21:46.591Z,33.10
2022-09-26T22:24:14.850Z,36.90
2022-09-26T22:26:44.173Z,32.20
2022-09-26T22:29:12.786Z,34.60
2022-09-26T22:31:41.881Z,36.10
2022-09-26T22:34:10.537Z,33.30
2022-09-26T22:36:38.836Z,38.70
2022-09-26T22:39:07.218Z,37.40
2022-09-26T22:41:36.128Z,36.10
2022-09-26T22:44:04.387Z,36.00
2022-09-26T22:46:34.395Z,40.20
2022-09-26T22:49:02.923Z,35.70
2022-09-26T22:51:31.279Z,40.40
2022-09-26T22:53:59.653Z,39.50
2022-09-26T22:56:27.921Z,36.30
2022-09-26T22:58:56.231Z,40.60
2022-09-26T23:01:27.281Z,38.30
2022-09-26T23:03:57.861Z,41.20
2022-09-26T23:06:27.248Z,34.20
2022-09-26T23:08:56.070Z,40.90
2022-09-26T23:11:24.494Z,38.90
2022-09-26T23:13:53.618Z,39.30
2022-09-26T23:16:23.893Z,39.40
2022-09-26T23:18:53.146Z,37.40
2022-09-26T23:21:23.074Z,41.10
2022-09-26T23:23:54.182Z,42.70
2022-09-26T23:26:25.137Z,44.90
2022-09-26T23:28:55.119Z,47.70
2022-09-26T23:31:24.711Z,46.90
2022-09-26T23:33:53.661Z,47.80
2022-09-26T23:36:22.609Z,42.80
2022-09-26T23:38:50.901Z,46.60
2022-09-26T23:41:19.688Z,46.90
2022-09-26T23:43:48.102Z,43.80
2022-09-26T23:46:16.893Z,42.10
2022-09-26T23:48:46.464Z,45.10
2022-09-26T23:51:14.881Z,48.00
2022-09-26T23:53:43.340Z,41.50
2022-09-26T23:56:13.503Z,43.00
2022-09-26T23:58:42.398Z,44.50
